Time;durP1;ratioP1;P1;durP2;ratioP2;P2;SDS_P1;SDS_P2;PMS_P1;PMS_P2;Temp;Humidity;BMP_temperature;BMP_pressure;BME280_temperature;BME280_humidity;BME280_pressure;Samples;Min_cycle;Max_cycle;Signal;HPM_P1;HPM_P2
2024/04/18 00:00:25;;;;;;;9.35;1.58;;;2.40;99.90;;;;;;5336514;26;20041;-67
2024/04/18 00:02:52;;;;;;;12.90;1.90;;;2.40;99.90;;;;;;5319172;26;20021;-67
2024/04/18 00:05:19;;;;;;;3.53;1.55;;;2.40;99.90;;;;;;5330263;26;20078;-67
2024/04/18 00:07:45;;;;;;;7.97;1.67;;;2.30;99.90;;;;;;5338961;26;20009;-67
2024/04/18 00:10:15;;;;;;;11.43;2.22;;;2.30;99.90;;;;;;5328352;26;20013;-68
2024/04/18 00:12:40;;;;;;;4.80;1.95;;;2.20;99.90;;;;;;5330653;26;20017;-67
2024/04/18 00:15:10;;;;;;;2.72;1.90;;;2.20;99.90;;;;;;5330890;26;20036;-68
2024/04/18 00:17:39;;;;;;;4.43;2.03;;;2.20;99.90;;;;;;5335447;26;20353;-68
2024/04/18 00:20:05;;;;;;;3.03;1.70;;;2.10;99.90;;;;;;5334799;26;20023;-67
2024/04/18 00:22:31;;;;;;;5.03;2.08;;;2.10;99.90;;;;;;5332537;26;20556;-67
2024/04/18 00:24:57;;;;;;;3.58;2.13;;;2.10;99.90;;;;;;5333708;26;20005;-67
2024/04/18 00:27:22;;;;;;;5.78;2.40;;;2.10;99.90;;;;;;5332809;26;20009;-68
2024/04/18 00:29:48;;;;;;;6.18;2.30;;;2.10;99.90;;;;;;5327062;26;20040;-67
2024/04/18 00:32:14;;;;;;;8.18;2.40;;;2.10;99.90;;;;;;5332733;26;20053;-68
2024/04/18 00:34:40;;;;;;;29.83;2.85;;;2.10;99.90;;;;;;5328539;26;20043;-68
2024/04/18 00:37:06;;;;;;;7.70;1.98;;;2.10;99.90;;;;;;5327085;26;20322;-67
2024/04/18 00:39:32;;;;;;;3.95;2.00;;;2.10;99.90;;;;;;5328153;26;20013;-67
2024/04/18 00:41:59;;;;;;;6.35;2.10;;;2.00;99.90;;;;;;5326908;26;20095;-69
2024/04/18 00:44:25;;;;;;;1.90;1.33;;;2.00;99.90;;;;;;5326637;26;20009;-67
2024/04/18 00:46:51;;;;;;;2.60;1.90;;;2.00;99.90;;;;;;5327210;26;20009;-67
2024/04/18 00:49:17;;;;;;;2.10;1.60;;;2.00;99.90;;;;;;5322833;26;20033;-67
2024/04/18 00:52:03;;;;;;;2.83;1.73;;;2.00;99.90;;;;;;5332197;26;20005;-67
2024/04/18 00:54:29;;;;;;;1.83;1.30;;;2.00;99.90;;;;;;5332869;26;20025;-67
2024/04/18 00:56:59;;;;;;;2.40;1.70;;;2.00;99.90;;;;;;5327502;26;20005;-67
2024/04/18 00:59:25;;;;;;;2.97;1.83;;;1.90;99.90;;;;;;5328084;26;20009;-67
2024/04/18 01:01:50;;;;;;;2.80;1.73;;;2.00;99.90;;;;;;5341455;26;20024;-68
2024/04/18 01:04:17;;;;;;;3.60;2.10;;;1.90;99.90;;;;;;5323166;26;20005;-68
2024/04/18 01:06:43;;;;;;;4.63;1.85;;;1.90;99.90;;;;;;5326023;26;20041;-67
2024/04/18 01:09:09;;;;;;;3.92;1.83;;;2.00;99.90;;;;;;5327343;26;20083;-68
2024/04/18 01:11:35;;;;;;;6.68;2.20;;;1.90;99.90;;;;;;5329108;26;20020;-68
2024/04/18 01:14:11;;;;;;;3.58;2.08;;;1.90;99.90;;;;;;5331880;26;20356;-68
2024/04/18 01:16:36;;;;;;;4.55;1.90;;;2.00;99.90;;;;;;5330513;26;20017;-68
2024/04/18 01:19:07;;;;;;;5.45;1.92;;;1.90;99.90;;;;;;5328317;26;20023;-68
2024/04/18 01:21:33;;;;;;;6.35;2.63;;;1.90;99.90;;;;;;5336293;26;20357;-68
2024/04/18 01:23:59;;;;;;;4.38;2.05;;;1.90;99.90;;;;;;5322592;26;20010;-68
2024/04/18 01:26:25;;;;;;;4.03;2.50;;;1.90;99.90;;;;;;5321259;26;20020;-69
2024/04/18 01:28:51;;;;;;;5.03;2.30;;;1.90;99.90;;;;;;5323916;26;20017;-68
2024/04/18 01:31:21;;;;;;;6.57;2.83;;;1.90;99.90;;;;;;5323066;26;20084;-68
2024/04/18 01:33:47;;;;;;;4.40;2.80;;;1.90;99.90;;;;;;5323388;26;20021;-68
2024/04/18 01:36:12;;;;;;;5.15;2.40;;;1.90;99.90;;;;;;5322844;26;20010;-69
2024/04/18 01:38:38;;;;;;;5.95;2.53;;;1.90;99.90;;;;;;5340219;26;20017;-72
2024/04/18 01:41:04;;;;;;;4.95;2.30;;;1.90;99.90;;;;;;5335936;26;20433;-72
2024/04/18 01:43:30;;;;;;;4.72;2.20;;;1.90;99.90;;;;;;5338642;26;20001;-72
2024/04/18 01:45:55;;;;;;;5.80;3.00;;;1.90;99.90;;;;;;5331703;26;20015;-71
2024/04/18 01:48:21;;;;;;;6.05;2.90;;;1.80;99.90;;;;;;5346991;26;20014;-72
2024/04/18 01:50:47;;;;;;;6.80;2.70;;;1.80;99.90;;;;;;5336780;26;20009;-72
2024/04/18 01:53:13;;;;;;;6.68;3.00;;;1.80;99.90;;;;;;5341572;26;20013;-72
2024/04/18 01:55:38;;;;;;;6.07;3.08;;;1.80;99.90;;;;;;5344393;26;20506;-71
2024/04/18 01:58:04;;;;;;;4.30;2.58;;;1.80;99.90;;;;;;5339701;26;20012;-72
2024/04/18 02:00:30;;;;;;;6.15;2.70;;;1.80;99.90;;;;;;5347024;26;20345;-72
2024/04/18 02:02:56;;;;;;;6.50;3.50;;;1.80;99.90;;;;;;5334192;26;20081;-71
2024/04/18 02:05:23;;;;;;;6.40;2.90;;;1.80;99.90;;;;;;5339810;26;20017;-72
2024/04/18 02:07:48;;;;;;;7.25;2.38;;;1.80;99.90;;;;;;5347834;26;20033;-72
2024/04/18 02:10:14;;;;;;;3.33;2.60;;;1.70;99.90;;;;;;5343892;26;20009;-71
2024/04/18 02:12:40;;;;;;;4.22;2.17;;;1.70;99.90;;;;;;5336307;26;20017;-71
2024/04/18 02:15:06;;;;;;;4.10;2.53;;;1.70;99.90;;;;;;5328632;26;20117;-71
2024/04/18 02:17:32;;;;;;;5.28;2.25;;;1.70;99.90;;;;;;5352054;26;20013;-72
2024/04/18 02:19:58;;;;;;;6.55;2.63;;;1.60;99.90;;;;;;5338487;26;20438;-72
2024/04/18 02:22:23;;;;;;;6.72;2.70;;;1.60;99.90;;;;;;5329039;26;20477;-72
2024/04/18 02:25:09;;;;;;;7.38;2.10;;;1.60;99.90;;;;;;5336298;26;20054;-73
2024/04/18 02:27:41;;;;;;;3.85;2.58;;;1.60;99.90;;;;;;5333252;26;20056;-73
2024/04/18 02:30:09;;;;;;;4.22;2.47;;;1.60;99.90;;;;;;5337452;26;20032;-72
2024/04/18 02:32:35;;;;;;;4.57;2.30;;;1.60;99.90;;;;;;5359899;26;20037;-73
2024/04/18 02:35:01;;;;;;;5.28;2.33;;;1.50;99.90;;;;;;5339486;26;20016;-73
2024/04/18 02:37:28;;;;;;;5.75;2.60;;;1.50;99.90;;;;;;5335070;26;20020;-73
2024/04/18 02:39:54;;;;;;;5.25;2.47;;;1.50;99.90;;;;;;5347177;26;20453;-73
2024/04/18 02:42:20;;;;;;;5.03;3.42;;;1.50;99.90;;;;;;5339652;26;20053;-72
2024/04/18 02:44:47;;;;;;;5.13;2.95;;;1.50;99.90;;;;;;5341774;26;20114;-72
2024/04/18 02:47:14;;;;;;;7.65;2.72;;;1.50;99.90;;;;;;5339748;26;20436;-72
2024/04/18 02:49:42;;;;;;;4.80;2.60;;;1.50;99.90;;;;;;5340778;26;20511;-72
2024/04/18 02:52:08;;;;;;;5.53;2.70;;;1.40;99.90;;;;;;5340259;26;20017;-71
2024/04/18 02:54:34;;;;;;;5.53;2.95;;;1.40;99.90;;;;;;5342346;26;20024;-72
2024/04/18 02:56:59;;;;;;;7.40;3.15;;;1.40;99.90;;;;;;5339051;26;20005;-71
2024/04/18 02:59:25;;;;;;;5.75;2.38;;;1.40;99.90;;;;;;5337891;26;20015;-71
2024/04/18 03:01:51;;;;;;;4.63;2.47;;;1.40;99.90;;;;;;5342770;26;20082;-70
2024/04/18 03:04:17;;;;;;;5.80;2.50;;;1.40;99.90;;;;;;5339792;26;20016;-71
2024/04/18 03:06:47;;;;;;;6.35;2.67;;;1.40;99.90;;;;;;5337640;26;20016;-71
2024/04/18 03:09:15;;;;;;;5.57;2.58;;;1.30;99.90;;;;;;5334489;26;20045;-71
2024/04/18 03:11:45;;;;;;;6.47;2.67;;;1.30;99.90;;;;;;5331684;26;20023;-71
2024/04/18 03:14:11;;;;;;;5.45;2.38;;;1.30;99.90;;;;;;5332038;26;20010;-71
2024/04/18 03:16:37;;;;;;;4.25;2.72;;;1.30;99.90;;;;;;5339604;26;20023;-71
2024/04/18 03:19:23;;;;;;;5.53;2.58;;;1.30;99.90;;;;;;5343689;26;20013;-71
2024/04/18 03:21:49;;;;;;;6.40;2.78;;;1.20;99.90;;;;;;5337810;26;20012;-71
2024/04/18 03:24:17;;;;;;;8.77;2.78;;;1.30;99.90;;;;;;5341864;26;20433;-70
2024/04/18 03:26:44;;;;;;;4.80;2.78;;;1.30;99.90;;;;;;5348924;26;20120;-71
2024/04/18 03:29:30;;;;;;;5.88;3.10;;;1.30;99.90;;;;;;5335982;26;20002;-70
2024/04/18 03:31:56;;;;;;;3.70;2.60;;;1.30;99.90;;;;;;5345073;26;20065;-70
2024/04/18 03:34:22;;;;;;;4.75;2.28;;;1.30;99.90;;;;;;5333023;26;20106;-71
2024/04/18 03:36:51;;;;;;;5.53;2.42;;;1.30;99.90;;;;;;5344107;26;20005;-71
2024/04/18 03:39:18;;;;;;;2.92;1.95;;;1.30;99.90;;;;;;5338093;26;20033;-71
2024/04/18 03:41:47;;;;;;;5.50;2.17;;;1.30;99.90;;;;;;5338824;26;20017;-71
2024/04/18 03:44:13;;;;;;;4.88;2.70;;;1.30;99.90;;;;;;5333182;26;20026;-70
2024/04/18 03:46:59;;;;;;;5.00;2.78;;;1.30;99.90;;;;;;5339114;26;20013;-70
2024/04/18 03:49:28;;;;;;;6.75;3.05;;;1.30;99.90;;;;;;5330930;26;20009;-70
2024/04/18 03:52:13;;;;;;;5.55;2.55;;;1.30;99.90;;;;;;5313306;26;20012;-70
2024/04/18 03:54:40;;;;;;;5.00;2.65;;;1.30;99.90;;;;;;5342628;26;20001;-70
2024/04/18 03:57:26;;;;;;;4.13;2.72;;;1.30;99.90;;;;;;5332862;26;20001;-70
2024/04/18 03:59:51;;;;;;;4.55;2.22;;;1.20;99.90;;;;;;5341322;26;20019;-70
2024/04/18 04:02:17;;;;;;;5.55;2.95;;;1.20;99.90;;;;;;5339380;26;20017;-70
2024/04/18 04:04:53;;;;;;;5.72;2.72;;;1.10;99.90;;;;;;5328950;26;20024;-70
2024/04/18 04:07:20;;;;;;;4.40;2.72;;;1.20;99.90;;;;;;5334866;26;20745;-70
2024/04/18 04:10:06;;;;;;;6.32;2.67;;;1.10;99.90;;;;;;5307932;26;20006;-70
2024/04/18 04:12:35;;;;;;;5.40;2.80;;;1.10;99.90;;;;;;5331431;26;20060;-70
2024/04/18 04:15:01;;;;;;;6.32;2.42;;;1.10;99.90;;;;;;5325051;26;20090;-70
2024/04/18 04:17:46;;;;;;;6.47;2.40;;;1.20;99.90;;;;;;5333869;26;20305;-70
2024/04/18 04:20:12;;;;;;;3.97;2.28;;;1.20;99.90;;;;;;5334689;26;20013;-70
2024/04/18 04:22:38;;;;;;;3.88;2.45;;;1.20;99.90;;;;;;5333645;26;20024;-70
2024/04/18 04:25:04;;;;;;;5.40;2.30;;;1.20;99.90;;;;;;5332782;26;20063;-71
2024/04/18 04:27:47;;;;;;;5.78;2.28;;;1.20;99.90;;;;;;5330392;26;20020;-70
2024/04/18 04:30:13;;;;;;;4.72;2.40;;;1.10;99.90;;;;;;5332552;26;20453;-70
2024/04/18 04:32:39;;;;;;;3.90;2.13;;;1.20;99.90;;;;;;5335179;26;20008;-70
2024/04/18 04:35:05;;;;;;;4.65;1.88;;;1.10;99.90;;;;;;5338758;26;20023;-69
2024/04/18 04:37:30;;;;;;;3.05;1.70;;;1.10;99.90;;;;;;5335973;26;20020;-70
2024/04/18 04:39:56;;;;;;;3.17;2.20;;;1.10;99.90;;;;;;5329786;26;20019;-70
2024/04/18 04:42:23;;;;;;;5.15;2.00;;;1.10;99.90;;;;;;5337701;26;20346;-70
2024/04/18 04:44:49;;;;;;;4.95;1.90;;;1.10;99.90;;;;;;5332085;26;20009;-69
2024/04/18 04:47:15;;;;;;;6.53;2.22;;;1.10;99.90;;;;;;5334252;26;19997;-70
2024/04/18 04:49:41;;;;;;;5.00;2.15;;;1.10;99.90;;;;;;5330067;26;20001;-70
2024/04/18 04:52:07;;;;;;;4.72;2.35;;;1.10;99.90;;;;;;5324043;26;20567;-69
2024/04/18 04:54:33;;;;;;;2.90;1.90;;;1.10;99.90;;;;;;5336662;26;20128;-69
2024/04/18 04:56:59;;;;;;;5.35;2.85;;;1.10;99.90;;;;;;5331083;26;20433;-69
2024/04/18 04:59:25;;;;;;;5.13;2.38;;;1.10;99.90;;;;;;5320576;26;20006;-69
2024/04/18 05:01:50;;;;;;;6.18;2.72;;;1.10;99.90;;;;;;5334513;26;20372;-69
2024/04/18 05:04:17;;;;;;;6.05;2.70;;;1.10;99.90;;;;;;5324021;26;20010;-69
2024/04/18 05:06:43;;;;;;;6.85;2.90;;;1.10;99.90;;;;;;5330020;26;20026;-69
2024/04/18 05:09:10;;;;;;;6.00;2.65;;;1.20;99.90;;;;;;5335844;26;20005;-70
2024/04/18 05:11:36;;;;;;;7.68;2.33;;;1.20;99.90;;;;;;5324163;26;20020;-69
2024/04/18 05:14:02;;;;;;;6.65;2.47;;;1.20;99.90;;;;;;5322084;26;20082;-69
2024/04/18 05:16:28;;;;;;;6.47;2.65;;;1.30;99.90;;;;;;5328678;26;20373;-70
2024/04/18 05:18:53;;;;;;;8.48;2.85;;;1.40;99.90;;;;;;5328104;26;20016;-69
2024/04/18 05:21:19;;;;;;;6.78;3.47;;;1.40;99.90;;;;;;5332171;26;20342;-69
2024/04/18 05:23:45;;;;;;;8.23;3.30;;;1.50;99.90;;;;;;5326201;26;20016;-68
2024/04/18 05:26:11;;;;;;;6.38;3.35;;;1.60;99.90;;;;;;5327590;26;20048;-69
2024/04/18 05:28:41;;;;;;;7.53;3.10;;;1.80;99.90;;;;;;5326076;26;20010;-68
2024/04/18 05:31:09;;;;;;;6.13;3.33;;;1.90;99.90;;;;;;5326862;26;20031;-69
2024/04/18 05:33:35;;;;;;;8.95;3.30;;;2.10;99.90;;;;;;5324725;26;20009;-69
2024/04/18 05:36:03;;;;;;;241.40;155.55;;;2.20;99.90;;;;;;5333652;26;20040;-69
2024/04/18 05:38:28;;;;;;;9.02;7.05;;;2.40;99.90;;;;;;5326264;26;20099;-69
2024/04/18 05:40:55;;;;;;;8.68;4.57;;;2.60;99.90;;;;;;5322667;26;20017;-69
2024/04/18 05:43:21;;;;;;;6.13;3.20;;;2.80;99.90;;;;;;5331359;26;20005;-69
2024/04/18 05:45:48;;;;;;;5.63;3.35;;;3.00;99.90;;;;;;5328638;26;20086;-69
2024/04/18 05:48:15;;;;;;;6.35;3.80;;;3.50;99.90;;;;;;5326340;26;19997;-68
2024/04/18 05:50:41;;;;;;;4.97;3.30;;;4.10;99.90;;;;;;5333096;26;20005;-69
2024/04/18 05:53:07;;;;;;;6.30;3.13;;;4.40;99.90;;;;;;5326415;26;20450;-69
2024/04/18 05:55:33;;;;;;;5.90;2.92;;;4.50;99.90;;;;;;5327878;26;20486;-70
2024/04/18 05:58:00;;;;;;;6.80;2.88;;;4.40;99.90;;;;;;5326989;26;20012;-69
2024/04/18 06:00:26;;;;;;;8.15;3.28;;;4.40;99.90;;;;;;5330625;26;20017;-69
2024/04/18 06:02:51;;;;;;;6.97;2.65;;;4.40;99.90;;;;;;5329900;26;20010;-69
2024/04/18 06:05:17;;;;;;;5.40;2.78;;;4.40;99.90;;;;;;5332242;26;20009;-69
2024/04/18 06:07:43;;;;;;;4.53;2.33;;;4.40;99.90;;;;;;5327688;26;20001;-70
2024/04/18 06:10:10;;;;;;;6.75;2.75;;;4.50;99.90;;;;;;5332013;26;20005;-70
2024/04/18 06:12:35;;;;;;;6.05;2.65;;;4.50;99.90;;;;;;5330893;26;20005;-71
2024/04/18 06:15:01;;;;;;;4.75;2.33;;;4.60;99.90;;;;;;5325886;26;20017;-70
2024/04/18 06:17:28;;;;;;;4.93;2.88;;;4.60;99.90;;;;;;5337096;26;19998;-71
2024/04/18 06:19:53;;;;;;;4.57;2.55;;;4.70;99.90;;;;;;5323008;26;20010;-72
2024/04/18 06:22:19;;;;;;;5.07;2.65;;;4.80;99.90;;;;;;5326435;26;20008;-72
2024/04/18 06:24:45;;;;;;;5.75;2.78;;;4.90;99.90;;;;;;5323801;26;20079;-72
2024/04/18 06:27:11;;;;;;;4.28;2.38;;;4.90;99.90;;;;;;5322188;26;20024;-73
2024/04/18 06:29:36;;;;;;;5.07;2.60;;;5.00;99.90;;;;;;5321113;26;20455;-73
2024/04/18 06:32:03;;;;;;;6.10;2.50;;;5.10;99.90;;;;;;5334008;26;20009;-73
2024/04/18 06:34:28;;;;;;;5.90;2.58;;;5.20;99.90;;;;;;5325312;26;20025;-73
2024/04/18 06:36:54;;;;;;;5.20;2.33;;;5.40;99.90;;;;;;5322600;26;20010;-73
2024/04/18 06:39:20;;;;;;;8.35;3.17;;;5.50;99.90;;;;;;5325352;26;20108;-73
2024/04/18 06:41:46;;;;;;;5.97;2.70;;;5.60;99.90;;;;;;5319971;26;20477;-73
2024/04/18 06:44:12;;;;;;;4.75;2.83;;;5.70;99.90;;;;;;5321647;26;20021;-73
2024/04/18 06:46:38;;;;;;;5.60;2.42;;;5.90;99.90;;;;;;5337222;26;20067;-73
2024/04/18 06:49:04;;;;;;;6.03;2.42;;;6.00;99.90;;;;;;5337261;26;20020;-73
2024/04/18 06:51:30;;;;;;;6.00;2.38;;;6.10;99.90;;;;;;5323851;26;20547;-73
2024/04/18 06:53:56;;;;;;;5.15;2.28;;;6.20;99.90;;;;;;5334654;26;20005;-73
2024/04/18 06:56:22;;;;;;;6.53;2.25;;;6.30;99.90;;;;;;5328001;26;20009;-73
2024/04/18 06:58:48;;;;;;;3.45;1.80;;;6.40;99.90;;;;;;5329358;26;20060;-73
2024/04/18 07:01:13;;;;;;;4.53;1.67;;;6.60;99.90;;;;;;5325991;26;20083;-72
2024/04/18 07:03:39;;;;;;;6.05;1.60;;;6.70;99.90;;;;;;5329806;26;20008;-72
2024/04/18 07:06:05;;;;;;;5.53;1.48;;;6.90;99.90;;;;;;5325432;26;20013;-73
2024/04/18 07:08:31;;;;;;;4.25;1.70;;;6.90;99.90;;;;;;5322795;26;20200;-72
2024/04/18 07:10:59;;;;;;;5.80;1.70;;;7.00;99.90;;;;;;5332367;26;20016;-72
2024/04/18 07:13:25;;;;;;;4.07;1.60;;;7.00;99.90;;;;;;5332830;26;20005;-72
2024/04/18 07:15:50;;;;;;;6.30;1.77;;;7.10;99.90;;;;;;5335217;26;20019;-72
2024/04/18 07:18:16;;;;;;;5.32;1.63;;;7.20;99.90;;;;;;5321844;26;20012;-70
2024/04/18 07:20:42;;;;;;;4.95;1.73;;;7.40;99.90;;;;;;5323934;26;20002;-71
2024/04/18 07:23:08;;;;;;;8.10;1.90;;;7.50;99.90;;;;;;5311491;26;20006;-71
2024/04/18 07:25:37;;;;;;;5.30;1.50;;;7.60;99.90;;;;;;5327177;26;20010;-71
2024/04/18 07:28:03;;;;;;;4.43;1.25;;;7.80;99.90;;;;;;5330866;26;20009;-70
2024/04/18 07:30:28;;;;;;;3.67;1.05;;;8.00;99.90;;;;;;5338092;26;20005;-71
2024/04/18 07:32:54;;;;;;;6.97;1.50;;;8.10;99.90;;;;;;5340078;26;20028;-70
2024/04/18 07:35:23;;;;;;;3.55;1.20;;;8.20;99.90;;;;;;5331615;26;20021;-70
2024/04/18 07:37:51;;;;;;;2.83;0.90;;;8.30;99.90;;;;;;5327370;26;20008;-71
2024/04/18 07:40:21;;;;;;;2.60;1.10;;;8.50;99.90;;;;;;5329714;26;20024;-70
2024/04/18 07:42:50;;;;;;;4.00;0.98;;;8.70;99.90;;;;;;5330981;26;20009;-71
2024/04/18 07:45:20;;;;;;;4.93;0.80;;;8.80;99.90;;;;;;5338909;26;20009;-71
2024/04/18 07:47:45;;;;;;;4.50;1.00;;;9.00;99.90;;;;;;5330162;26;20083;-71
2024/04/18 07:50:11;;;;;;;4.93;0.80;;;9.10;99.90;;;;;;5332965;26;20017;-71
2024/04/18 07:52:39;;;;;;;5.22;0.75;;;9.30;99.90;;;;;;5337016;26;20009;-70
2024/04/18 07:55:06;;;;;;;5.68;0.80;;;9.40;99.90;;;;;;5334796;26;20357;-70
2024/04/18 07:57:31;;;;;;;3.05;0.55;;;9.50;99.90;;;;;;5326570;26;20016;-70
2024/04/18 07:59:57;;;;;;;2.22;0.55;;;9.60;99.90;;;;;;5332374;26;20005;-71
2024/04/18 08:02:23;;;;;;;2.33;0.68;;;9.50;99.90;;;;;;5327895;26;20025;-70
2024/04/18 08:04:49;;;;;;;1.60;0.70;;;9.60;99.90;;;;;;5319876;26;20436;-70
2024/04/18 08:07:15;;;;;;;4.07;0.70;;;9.60;99.90;;;;;;5326084;26;20092;-70
2024/04/18 08:09:41;;;;;;;2.92;0.50;;;9.70;99.90;;;;;;5329580;26;20456;-71
2024/04/18 08:12:07;;;;;;;2.45;0.43;;;9.80;99.90;;;;;;5332797;26;20001;-70
2024/04/18 08:14:33;;;;;;;5.85;0.75;;;10.20;99.90;;;;;;5328901;26;20023;-70
2024/04/18 08:16:59;;;;;;;5.43;0.80;;;10.60;99.90;;;;;;5324438;26;20032;-69
2024/04/18 08:19:25;;;;;;;3.03;0.88;;;11.20;99.90;;;;;;5331516;26;20016;-69
2024/04/18 08:21:51;;;;;;;2.33;0.73;;;11.40;99.90;;;;;;5337242;26;20005;-70
2024/04/18 08:24:27;;;;;;;2.88;0.70;;;11.30;99.90;;;;;;5333543;26;20005;-70
2024/04/18 08:26:56;;;;;;;2.13;0.47;;;11.10;99.90;;;;;;5344408;26;20012;-70
2024/04/18 08:29:26;;;;;;;2.95;0.47;;;10.90;99.90;;;;;;5329393;26;20093;-70
2024/04/18 08:31:54;;;;;;;2.53;0.50;;;11.00;99.90;;;;;;5337600;26;20019;-70
2024/04/18 08:34:20;;;;;;;6.95;0.73;;;11.10;99.90;;;;;;5330443;26;20024;-70
2024/04/18 08:36:46;;;;;;;4.63;0.70;;;11.30;99.90;;;;;;5341442;26;20009;-70
2024/04/18 08:39:12;;;;;;;5.78;0.85;;;11.60;99.90;;;;;;5340020;26;20016;-69
2024/04/18 08:41:38;;;;;;;3.67;0.63;;;12.20;99.90;;;;;;5338516;26;20086;-69
2024/04/18 08:44:06;;;;;;;3.90;0.50;;;12.20;99.90;;;;;;5338448;26;20009;-69
2024/04/18 08:46:36;;;;;;;4.13;0.50;;;11.90;99.90;;;;;;5331250;26;20350;-69
2024/04/18 08:49:07;;;;;;;4.50;0.93;;;11.40;99.90;;;;;;5338217;26;20006;-69
2024/04/18 08:51:36;;;;;;;4.00;0.80;;;10.90;99.90;;;;;;5339187;26;20009;-70
2024/04/18 08:54:05;;;;;;;3.38;0.70;;;10.60;99.90;;;;;;5332189;26;20081;-69
2024/04/18 08:56:35;;;;;;;3.67;0.57;;;10.70;99.90;;;;;;5327929;26;20382;-69
2024/04/18 08:59:01;;;;;;;3.28;0.70;;;11.60;99.90;;;;;;5326419;26;20068;-69
2024/04/18 09:01:27;;;;;;;4.57;0.50;;;12.60;99.90;;;;;;5328558;26;20003;-69
2024/04/18 09:03:58;;;;;;;2.17;0.20;;;13.70;99.90;;;;;;5324411;26;20492;-69
2024/04/18 09:06:24;;;;;;;3.20;0.40;;;14.50;99.90;;;;;;5321069;26;20009;-69
2024/04/18 09:08:54;;;;;;;3.72;0.55;;;15.00;99.90;;;;;;5330778;26;20298;-69
2024/04/18 09:11:20;;;;;;;3.42;0.30;;;15.00;99.90;;;;;;5333989;26;20012;-68
2024/04/18 09:13:47;;;;;;;5.22;0.45;;;15.50;99.90;;;;;;5345309;26;20019;-68
2024/04/18 09:16:13;;;;;;;4.13;0.60;;;15.00;99.90;;;;;;5336262;26;20466;-68
2024/04/18 09:18:39;;;;;;;3.08;0.65;;;14.20;99.90;;;;;;5328573;26;20009;-67
2024/04/18 09:21:09;;;;;;;3.45;0.55;;;13.40;99.90;;;;;;5327634;26;20107;-68
2024/04/18 09:23:35;;;;;;;3.20;0.30;;;12.60;99.90;;;;;;5338463;26;20052;-68
2024/04/18 09:26:01;;;;;;;2.30;0.55;;;11.80;99.90;;;;;;5335284;26;20362;-68
2024/04/18 09:28:27;;;;;;;3.13;0.52;;;11.30;99.90;;;;;;5330849;26;20013;-68
2024/04/18 09:30:56;;;;;;;3.72;0.40;;;10.90;99.90;;;;;;5334367;26;20019;-68
2024/04/18 09:33:25;;;;;;;2.38;0.30;;;11.40;99.90;;;;;;5335112;26;20009;-68
2024/04/18 09:35:56;;;;;;;2.65;0.43;;;11.70;99.90;;;;;;5329987;26;20088;-68
2024/04/18 09:38:22;;;;;;;0.90;0.30;;;11.50;99.90;;;;;;5332798;26;20449;-68
2024/04/18 09:41:12;;;;;;;2.33;0.52;;;11.20;99.90;;;;;;5338938;26;20010;-68
2024/04/18 09:43:44;;;;;;;2.92;0.43;;;10.90;99.90;;;;;;5332584;26;20021;-68
2024/04/18 09:46:10;;;;;;;3.60;0.43;;;10.80;99.90;;;;;;5331695;26;20006;-68
2024/04/18 09:48:36;;;;;;;4.93;0.52;;;10.70;99.90;;;;;;5338618;26;20031;-68
2024/04/18 09:51:04;;;;;;;2.28;0.32;;;10.60;99.90;;;;;;5321628;26;20457;-68
2024/04/18 09:53:29;;;;;;;4.88;0.57;;;10.60;99.90;;;;;;5329880;26;20005;-68
2024/04/18 09:55:58;;;;;;;4.03;0.30;;;10.60;99.90;;;;;;5323017;26;20005;-69
2024/04/18 09:58:26;;;;;;;3.90;0.50;;;10.50;99.90;;;;;;5318852;26;20468;-68
2024/04/18 10:00:53;;;;;;;3.35;0.40;;;10.60;99.90;;;;;;5325495;26;20009;-68
2024/04/18 10:03:19;;;;;;;2.30;0.25;;;10.60;99.90;;;;;;5328467;26;20001;-68
2024/04/18 10:05:49;;;;;;;3.50;0.68;;;10.70;99.90;;;;;;5321517;26;20244;-68
2024/04/18 10:08:22;;;;;;;2.33;0.30;;;10.90;99.90;;;;;;5330350;26;20024;-68
2024/04/18 10:10:49;;;;;;;3.05;0.45;;;11.10;99.90;;;;;;5326839;26;20025;-67
2024/04/18 10:13:15;;;;;;;2.42;0.40;;;11.30;99.90;;;;;;5333491;26;20425;-67
2024/04/18 10:15:42;;;;;;;2.80;0.40;;;11.40;99.90;;;;;;5332372;26;20016;-67
2024/04/18 10:18:17;;;;;;;3.17;0.40;;;11.60;99.90;;;;;;5330885;26;20563;-68
2024/04/18 10:20:49;;;;;;;1.58;0.35;;;12.00;99.90;;;;;;5330180;26;20450;-68
2024/04/18 10:23:15;;;;;;;2.88;0.40;;;12.70;99.90;;;;;;5330703;26;20041;-68
2024/04/18 10:25:43;;;;;;;4.10;0.57;;;13.40;99.90;;;;;;5333035;26;20009;-68
2024/04/18 10:28:36;;;;;;;3.22;0.50;;;13.50;99.90;;;;;;5330033;26;20047;-68
2024/04/18 10:31:04;;;;;;;3.67;0.60;;;13.30;99.90;;;;;;5333755;26;20024;-68
2024/04/18 10:33:29;;;;;;;2.90;0.43;;;13.20;99.90;;;;;;5331788;26;20009;-69
2024/04/18 10:35:56;;;;;;;3.80;0.77;;;13.00;99.90;;;;;;5334688;26;20024;-69
2024/04/18 10:38:28;;;;;;;2.58;0.30;;;12.70;99.90;;;;;;5338976;26;20307;-68
2024/04/18 10:41:00;;;;;;;2.58;0.30;;;12.50;99.90;;;;;;5325983;26;20021;-68
2024/04/18 10:43:28;;;;;;;2.85;0.47;;;12.60;99.90;;;;;;5317923;26;20086;-68
2024/04/18 10:45:56;;;;;;;3.00;0.30;;;12.80;99.90;;;;;;5324439;26;20057;-68
2024/04/18 10:48:22;;;;;;;3.22;0.30;;;12.80;99.90;;;;;;5327699;26;20033;-69
2024/04/18 10:50:50;;;;;;;3.60;0.38;;;12.80;99.90;;;;;;5333608;26;20016;-69
2024/04/18 10:53:16;;;;;;;2.65;0.40;;;12.60;99.90;;;;;;5333153;26;20028;-69
2024/04/18 10:55:42;;;;;;;3.03;0.50;;;12.70;99.90;;;;;;5333487;26;20009;-69
2024/04/18 10:58:15;;;;;;;3.63;0.50;;;12.70;99.90;;;;;;5331659;26;20005;-68
2024/04/18 11:00:44;;;;;;;1.92;0.60;;;12.50;99.90;;;;;;5333229;26;20386;-68
2024/04/18 11:03:13;;;;;;;2.85;0.40;;;12.30;99.90;;;;;;5322148;26;20009;-68
2024/04/18 11:05:43;;;;;;;5.50;1.00;;;12.00;99.90;;;;;;5342279;26;20152;-68
2024/04/18 11:08:09;;;;;;;3.97;1.10;;;11.90;99.90;;;;;;5329603;26;20053;-69
2024/04/18 11:10:38;;;;;;;5.13;0.98;;;11.60;99.90;;;;;;5324981;26;20021;-69
2024/04/18 11:13:04;;;;;;;4.97;0.70;;;11.30;99.90;;;;;;5320347;26;20009;-68
2024/04/18 11:15:31;;;;;;;2.65;0.63;;;11.00;99.90;;;;;;5334890;26;20008;-68
2024/04/18 11:18:03;;;;;;;4.05;0.70;;;10.80;99.90;;;;;;5329472;26;20037;-68
2024/04/18 11:20:29;;;;;;;4.78;0.68;;;10.70;99.90;;;;;;5334101;26;20013;-68
2024/04/18 11:22:55;;;;;;;3.45;0.52;;;10.60;99.90;;;;;;5326596;26;20009;-68
2024/04/18 11:25:21;;;;;;;3.92;1.23;;;10.40;99.90;;;;;;5324445;26;20350;-69
2024/04/18 11:27:47;;;;;;;3.75;0.57;;;10.50;99.90;;;;;;5323599;26;20520;-68
2024/04/18 11:30:18;;;;;;;3.53;0.55;;;10.60;99.90;;;;;;5332595;26;20005;-69
2024/04/18 11:32:57;;;;;;;2.88;0.90;;;11.10;99.90;;;;;;5325889;26;20055;-69
2024/04/18 11:35:23;;;;;;;5.10;0.70;;;11.80;99.90;;;;;;5324937;26;20425;-69
2024/04/18 11:37:49;;;;;;;4.20;1.50;;;12.20;99.90;;;;;;5339071;26;20018;-69
2024/04/18 11:40:15;;;;;;;2.67;0.60;;;12.50;99.90;;;;;;5315461;26;20024;-69
2024/04/18 11:42:42;;;;;;;2.85;0.50;;;12.60;99.90;;;;;;5327220;26;20418;-69
2024/04/18 11:45:09;;;;;;;10.98;6.22;;;12.60;99.90;;;;;;5322415;26;20479;-69
2024/04/18 11:47:36;;;;;;;3.22;0.63;;;12.50;99.90;;;;;;5318035;26;20009;-69
2024/04/18 11:50:08;;;;;;;3.55;0.68;;;12.80;99.90;;;;;;5326794;26;20017;-69
2024/04/18 11:52:34;;;;;;;6.10;4.13;;;13.30;99.90;;;;;;5335561;26;20016;-68
2024/04/18 11:55:00;;;;;;;41.60;32.45;;;14.00;99.90;;;;;;5324430;26;20025;-69
2024/04/18 11:57:26;;;;;;;4.05;1.63;;;14.40;99.90;;;;;;5329372;26;20005;-69
2024/04/18 11:59:51;;;;;;;3.28;0.52;;;14.40;99.90;;;;;;5328684;26;20009;-70
2024/04/18 12:02:17;;;;;;;3.22;0.77;;;14.40;99.90;;;;;;5331834;26;20028;-69
2024/04/18 12:04:43;;;;;;;4.15;0.55;;;14.00;99.90;;;;;;5327706;26;20342;-69
2024/04/18 12:07:09;;;;;;;2.47;0.47;;;13.60;99.90;;;;;;5326764;26;20020;-69
2024/04/18 12:09:39;;;;;;;24.85;20.67;;;13.30;99.90;;;;;;5329985;26;20009;-69
2024/04/18 12:12:06;;;;;;;5.68;2.67;;;13.10;99.90;;;;;;5328197;26;20345;-69
2024/04/18 12:14:32;;;;;;;2.03;0.40;;;12.70;99.90;;;;;;5332130;26;19998;-70
2024/04/18 12:16:57;;;;;;;3.47;0.60;;;12.30;99.90;;;;;;5333620;26;20449;-70
2024/04/18 12:19:24;;;;;;;2.92;0.50;;;12.10;99.90;;;;;;5321488;26;20005;-69
2024/04/18 12:21:50;;;;;;;4.85;1.00;;;12.40;99.90;;;;;;5320380;26;20028;-69
2024/04/18 12:24:17;;;;;;;3.92;0.65;;;12.20;99.90;;;;;;5331604;26;20016;-69
2024/04/18 12:26:44;;;;;;;2.35;0.70;;;11.80;99.90;;;;;;5328878;26;20014;-69
2024/04/18 12:29:10;;;;;;;3.63;0.50;;;11.60;99.90;;;;;;5312651;26;20005;-68
2024/04/18 12:31:35;;;;;;;5.68;0.90;;;11.30;99.90;;;;;;5326708;26;20005;-68
2024/04/18 12:34:01;;;;;;;3.30;0.93;;;11.30;99.90;;;;;;5322156;26;20039;-69
2024/04/18 12:36:27;;;;;;;4.25;0.70;;;11.30;99.90;;;;;;5318933;26;20012;-68
2024/04/18 12:38:53;;;;;;;3.40;0.60;;;11.50;99.90;;;;;;5324481;26;20017;-69
2024/04/18 12:41:19;;;;;;;5.72;0.80;;;11.80;99.90;;;;;;5330471;26;20464;-70
2024/04/18 12:43:44;;;;;;;3.75;0.75;;;11.80;99.90;;;;;;5324285;26;20017;-72
2024/04/18 12:46:11;;;;;;;5.22;0.70;;;12.20;99.90;;;;;;5330489;26;20021;-68
2024/04/18 12:48:37;;;;;;;6.30;0.93;;;12.30;99.90;;;;;;5324102;26;20461;-68
2024/04/18 12:51:05;;;;;;;2.97;0.50;;;12.40;99.90;;;;;;5326080;26;20064;-69
2024/04/18 12:53:37;;;;;;;2.80;0.47;;;12.60;99.90;;;;;;5319653;26;20006;-69